createdAt,value
2023-05-05T00:01:19.047Z,84.80
2023-05-05T00:03:50.201Z,84.94
2023-05-05T00:06:21.257Z,85.00
2023-05-05T00:08:51.947Z,85.06
2023-05-05T00:11:22.322Z,85.10
2023-05-05T00:13:53.563Z,85.10
2023-05-05T00:16:24.817Z,85.15
2023-05-05T00:18:55.645Z,84.92
2023-05-05T00:21:26.307Z,85.01
2023-05-05T00:23:56.715Z,84.91
2023-05-05T00:26:27.700Z,84.94
2023-05-05T00:28:59.486Z,84.91
2023-05-05T00:31:31.369Z,85.01
2023-05-05T00:34:03.070Z,84.90
2023-05-05T00:36:34.204Z,84.93
2023-05-05T00:39:05.304Z,85.08
2023-05-05T00:41:37.023Z,85.09
2023-05-05T00:44:08.926Z,85.03
2023-05-05T00:46:39.497Z,84.97
2023-05-05T00:49:11.519Z,85.17
2023-05-05T00:51:43.951Z,85.12
2023-05-05T00:54:15.484Z,85.18
2023-05-05T00:56:47.289Z,85.16
2023-05-05T00:59:19.105Z,85.17
2023-05-05T01:01:50.604Z,85.15
2023-05-05T01:04:21.572Z,85.13
2023-05-05T01:07:17.417Z,85.17
2023-05-05T01:10:11.426Z,85.01
2023-05-05T01:12:57.240Z,85.05
2023-05-05T01:15:35.198Z,85.17
2023-05-05T01:18:18.113Z,85.16
2023-05-05T01:21:08.711Z,85.20
2023-05-05T01:24:06.886Z,85.13
2023-05-05T01:27:16.641Z,85.13
2023-05-05T01:30:22.336Z,85.16
2023-05-05T01:32:58.195Z,85.10
2023-05-05T01:35:54.270Z,85.21
2023-05-05T01:38:35.746Z,85.18
2023-05-05T01:41:22.542Z,85.22
2023-05-05T01:43:55.666Z,85.02
2023-05-05T01:46:27.215Z,85.14
2023-05-05T01:49:00.501Z,85.22
2023-05-05T01:51:41.702Z,85.17
2023-05-05T01:54:16.186Z,85.26
2023-05-05T01:56:48.674Z,85.57
2023-05-05T01:59:22.578Z,85.78
2023-05-05T02:01:55.129Z,85.74
2023-05-05T02:04:26.593Z,85.80
2023-05-05T02:07:00.341Z,86.15
2023-05-05T02:09:31.549Z,86.23
2023-05-05T02:12:03.875Z,86.37
2023-05-05T02:14:37.241Z,86.52
2023-05-05T02:17:08.014Z,86.64
2023-05-05T02:19:44.452Z,86.86
2023-05-05T02:22:17.916Z,86.70
2023-05-05T02:24:48.508Z,86.70
2023-05-05T02:27:22.128Z,86.55
2023-05-05T02:30:01.090Z,86.68
2023-05-05T02:32:40.899Z,86.86
2023-05-05T02:35:23.344Z,87.05
2023-05-05T02:38:01.486Z,87.12
2023-05-05T02:40:39.036Z,87.14
2023-05-05T02:43:13.109Z,87.33
2023-05-05T02:45:47.606Z,86.86
2023-05-05T02:48:26.083Z,86.91
2023-05-05T02:51:04.759Z,86.49
2023-05-05T02:53:39.468Z,87.01
2023-05-05T02:56:28.159Z,87.21
2023-05-05T02:59:17.654Z,87.41
2023-05-05T03:02:26.323Z,87.15
2023-05-05T03:05:25.439Z,87.09
2023-05-05T03:08:05.915Z,87.26
2023-05-05T03:11:08.258Z,86.62
2023-05-05T03:13:46.852Z,87.25
2023-05-05T03:16:21.798Z,87.37
2023-05-05T03:18:55.407Z,87.53
2023-05-05T03:21:27.362Z,87.48
2023-05-05T03:23:59.871Z,87.58
2023-05-05T03:26:32.378Z,87.55
2023-05-05T03:29:04.862Z,87.54
2023-05-05T03:34:31.993Z,87.53
2023-05-05T03:37:07.426Z,87.64
2023-05-05T03:39:41.621Z,87.62
2023-05-05T03:42:16.591Z,87.66
2023-05-05T03:44:50.412Z,87.49
2023-05-05T03:47:22.463Z,87.37
2023-05-05T03:49:53.764Z,87.15
2023-05-05T03:52:25.582Z,87.33
2023-05-05T03:54:57.109Z,87.26
2023-05-05T03:57:31.122Z,87.33
2023-05-05T04:00:02.843Z,87.22
2023-05-05T04:02:54.338Z,87.06
2023-05-05T04:05:27.926Z,86.97
2023-05-05T04:08:00.656Z,86.75
2023-05-05T04:10:35.442Z,86.67
2023-05-05T04:13:09.084Z,86.61
2023-05-05T04:15:40.129Z,86.57
2023-05-05T04:18:11.720Z,86.51
2023-05-05T04:20:44.000Z,86.32
2023-05-05T04:23:16.313Z,86.26
2023-05-05T04:25:48.452Z,86.20
2023-05-05T04:28:21.601Z,86.17
2023-05-05T04:30:53.474Z,86.23
2023-05-05T04:33:24.827Z,86.24
2023-05-05T04:35:54.938Z,86.25
2023-05-05T04:38:26.514Z,86.34
2023-05-05T04:40:56.819Z,86.26
2023-05-05T04:43:27.160Z,86.26
2023-05-05T04:45:58.710Z,86.15
2023-05-05T04:48:33.909Z,86.14
2023-05-05T04:51:09.394Z,86.19
2023-05-05T04:53:41.501Z,86.03
2023-05-05T04:56:12.785Z,86.12
2023-05-05T04:58:43.610Z,85.97
2023-05-05T05:01:13.966Z,85.95
2023-05-05T05:03:45.547Z,85.87
2023-05-05T05:06:16.033Z,85.91
2023-05-05T05:08:46.882Z,85.95
2023-05-05T05:11:18.560Z,85.84
2023-05-05T05:13:49.525Z,85.91
2023-05-05T05:16:21.393Z,85.77
2023-05-05T05:18:53.108Z,86.04
2023-05-05T05:21:24.980Z,85.87
2023-05-05T05:23:59.000Z,86.07
2023-05-05T05:26:37.712Z,86.08
2023-05-05T05:29:08.795Z,85.97
2023-05-05T05:34:25.424Z,86.03
2023-05-05T05:36:56.949Z,86.05
2023-05-05T05:39:27.186Z,85.92
2023-05-05T05:41:57.423Z,86.08
2023-05-05T05:44:29.452Z,86.03
2023-05-05T05:46:59.988Z,86.06
2023-05-05T05:49:32.164Z,86.08
2023-05-05T05:52:07.076Z,85.95
2023-05-05T05:54:38.331Z,85.97
2023-05-05T05:57:09.368Z,85.99
2023-05-05T05:59:40.159Z,86.03
2023-05-05T06:02:12.118Z,86.02
2023-05-05T06:04:43.861Z,86.00
2023-05-05T06:07:15.544Z,85.79
2023-05-05T06:09:46.881Z,85.84
2023-05-05T06:12:17.922Z,85.78
2023-05-05T06:14:48.107Z,85.72
2023-05-05T06:17:19.169Z,85.74
2023-05-05T06:19:54.776Z,85.95
2023-05-05T06:22:29.496Z,86.39
2023-05-05T06:25:00.234Z,86.52
2023-05-05T06:27:31.369Z,86.49
2023-05-05T06:30:03.265Z,86.76
2023-05-05T06:32:35.302Z,86.88
2023-05-05T06:35:09.208Z,86.91
2023-05-05T06:37:41.021Z,86.91
2023-05-05T06:40:12.765Z,86.83
2023-05-05T06:42:43.954Z,86.63
2023-05-05T06:45:20.604Z,86.53
2023-05-05T06:47:52.206Z,86.48
2023-05-05T06:50:24.532Z,86.47
2023-05-05T06:52:54.819Z,86.29
2023-05-05T06:55:26.064Z,86.21
2023-05-05T06:57:56.464Z,86.03
2023-05-05T07:00:27.775Z,85.89
2023-05-05T07:02:59.587Z,85.92
2023-05-05T07:05:30.529Z,85.76
2023-05-05T07:08:01.855Z,85.62
2023-05-05T07:10:33.321Z,85.61
2023-05-05T07:13:04.751Z,85.60
2023-05-05T07:15:35.676Z,85.55
2023-05-05T07:18:06.946Z,85.45
2023-05-05T07:20:38.424Z,85.42
2023-05-05T07:23:09.622Z,85.38
2023-05-05T07:25:41.752Z,85.37
2023-05-05T07:28:13.817Z,85.40
2023-05-05T07:30:44.319Z,85.80
2023-05-05T07:33:15.107Z,86.17
2023-05-05T07:35:45.891Z,86.24
2023-05-05T07:38:20.300Z,86.21
2023-05-05T07:40:50.891Z,86.14
2023-05-05T07:43:21.040Z,86.25
2023-05-05T07:45:51.923Z,86.14
2023-05-05T07:48:22.801Z,86.10
2023-05-05T07:50:54.783Z,85.99
2023-05-05T07:53:25.195Z,85.86
2023-05-05T07:55:55.996Z,85.93
2023-05-05T07:58:27.669Z,85.91
2023-05-05T08:00:58.869Z,85.99
2023-05-05T08:03:29.447Z,86.25
2023-05-05T08:06:11.185Z,86.38
2023-05-05T08:08:41.435Z,86.34
2023-05-05T08:11:12.658Z,86.16
2023-05-05T08:13:44.657Z,85.92
2023-05-05T08:16:15.439Z,85.79
2023-05-05T08:18:47.349Z,85.65
2023-05-05T08:21:18.381Z,85.56
2023-05-05T08:23:49.922Z,85.52
2023-05-05T08:26:21.256Z,85.44
2023-05-05T08:28:52.403Z,85.46
2023-05-05T08:31:24.958Z,85.44
2023-05-05T08:34:00.128Z,85.33
2023-05-05T08:36:31.567Z,85.32
2023-05-05T08:39:03.919Z,85.36
2023-05-05T08:41:36.047Z,85.39
2023-05-05T08:44:06.695Z,85.28
2023-05-05T08:46:41.023Z,85.21
2023-05-05T08:52:05.790Z,84.73
2023-05-05T08:54:41.302Z,84.59
2023-05-05T08:57:13.025Z,84.58
2023-05-05T08:59:44.095Z,84.23
2023-05-05T09:02:16.729Z,84.21
2023-05-05T09:04:47.925Z,84.16
2023-05-05T09:07:18.971Z,84.12
2023-05-05T09:09:50.048Z,83.93
2023-05-05T09:12:22.203Z,83.81
2023-05-05T09:14:53.706Z,83.70
2023-05-05T09:17:29.158Z,84.07
2023-05-05T09:20:14.513Z,84.12
2023-05-05T09:22:49.857Z,84.15
2023-05-05T09:25:21.128Z,84.16
2023-05-05T09:27:51.782Z,84.39
2023-05-05T09:30:29.441Z,84.45
2023-05-05T09:33:01.104Z,84.46
2023-05-05T09:35:58.307Z,84.46
2023-05-05T09:38:29.426Z,84.25
2023-05-05T09:41:00.859Z,84.78
2023-05-05T09:43:32.235Z,84.78
2023-05-05T09:46:10.619Z,84.58
2023-05-05T09:48:41.199Z,84.79
2023-05-05T09:51:12.000Z,84.53
2023-05-05T09:53:43.709Z,84.87
2023-05-05T09:56:15.140Z,84.47
2023-05-05T09:58:47.167Z,84.41
2023-05-05T10:01:27.609Z,83.81
2023-05-05T10:03:58.702Z,84.31
2023-05-05T10:06:45.671Z,84.44
2023-05-05T10:09:17.869Z,84.51
2023-05-05T10:11:49.072Z,84.36
2023-05-05T10:14:22.694Z,84.32
2023-05-05T10:16:56.377Z,84.45
2023-05-05T10:19:34.884Z,84.32
2023-05-05T10:22:13.478Z,84.62
2023-05-05T10:24:59.870Z,84.68
2023-05-05T10:27:36.068Z,84.70
2023-05-05T10:30:11.684Z,84.60
2023-05-05T10:33:13.195Z,84.83
2023-05-05T10:35:54.566Z,84.44
2023-05-05T10:38:27.965Z,84.66
2023-05-05T10:41:02.363Z,84.37
2023-05-05T10:43:34.937Z,83.81
2023-05-05T10:46:05.825Z,84.34
2023-05-05T10:48:45.149Z,84.07
2023-05-05T10:51:39.536Z,83.08
2023-05-05T10:54:29.745Z,83.56
2023-05-05T10:57:06.230Z,83.60
2023-05-05T10:59:40.346Z,82.56
2023-05-05T11:02:31.121Z,80.46
2023-05-05T11:05:25.816Z,80.07
2023-05-05T11:07:56.480Z,80.46
2023-05-05T11:10:27.580Z,80.03
2023-05-05T11:13:02.122Z,79.46
2023-05-05T11:15:32.537Z,80.15
2023-05-05T11:18:07.954Z,79.78
2023-05-05T11:20:50.524Z,80.16
2023-05-05T11:23:25.382Z,80.65
2023-05-05T11:25:57.305Z,80.25
2023-05-05T11:28:31.416Z,80.83
2023-05-05T11:31:06.183Z,80.40
2023-05-05T11:33:41.810Z,80.18
2023-05-05T11:36:20.282Z,80.78
2023-05-05T11:39:00.525Z,80.96
2023-05-05T11:41:35.255Z,80.89
2023-05-05T11:44:23.668Z,81.08
2023-05-05T11:46:54.727Z,80.82
2023-05-05T11:49:42.099Z,80.24
2023-05-05T11:52:16.834Z,80.58
2023-05-05T11:54:51.879Z,80.18
2023-05-05T11:57:29.490Z,80.27
2023-05-05T12:00:10.506Z,79.94
2023-05-05T12:02:42.158Z,80.21
2023-05-05T12:05:14.081Z,80.20
2023-05-05T12:07:45.717Z,80.45
2023-05-05T12:10:25.029Z,80.21
2023-05-05T12:12:56.593Z,80.09
2023-05-05T12:15:33.164Z,80.36
2023-05-05T12:18:07.678Z,80.13
2023-05-05T12:20:39.491Z,80.03
2023-05-05T12:23:13.692Z,80.30
2023-05-05T12:25:43.894Z,80.03
2023-05-05T12:28:16.765Z,80.16
2023-05-05T12:30:59.156Z,80.00
2023-05-05T12:33:31.241Z,80.18
2023-05-05T12:36:01.767Z,80.07
2023-05-05T12:38:31.990Z,80.04
2023-05-05T12:41:03.346Z,79.93
2023-05-05T12:43:37.418Z,79.73
2023-05-05T12:46:16.747Z,79.71
2023-05-05T12:48:48.729Z,80.16
2023-05-05T12:51:28.232Z,79.84
2023-05-05T12:54:15.253Z,79.54
2023-05-05T12:56:50.790Z,79.10
2023-05-05T12:59:24.916Z,79.22
2023-05-05T13:01:58.470Z,78.94
2023-05-05T13:04:33.965Z,79.06
2023-05-05T13:07:16.670Z,78.97
2023-05-05T13:09:48.305Z,79.08
2023-05-05T13:12:25.099Z,78.98
2023-05-05T13:14:55.562Z,79.14
2023-05-05T13:17:26.542Z,78.34
2023-05-05T13:19:57.665Z,78.25
2023-05-05T13:22:32.099Z,78.28
2023-05-05T13:25:05.682Z,78.77
2023-05-05T13:27:36.055Z,78.48
2023-05-05T13:30:12.344Z,78.37
2023-05-05T13:32:45.125Z,78.51
2023-05-05T13:35:16.679Z,78.03
2023-05-05T13:37:49.208Z,78.47
2023-05-05T13:40:20.416Z,78.08
2023-05-05T13:42:51.842Z,78.23
2023-05-05T13:45:23.259Z,77.77
2023-05-05T13:47:53.541Z,78.19
2023-05-05T13:50:29.174Z,77.51
2023-05-05T13:52:59.302Z,77.53
2023-05-05T13:55:30.994Z,77.51
2023-05-05T13:58:03.115Z,78.39
2023-05-05T14:00:34.983Z,78.29
2023-05-05T14:03:06.926Z,77.31
2023-05-05T14:05:38.875Z,78.38
2023-05-05T14:08:10.372Z,78.25
2023-05-05T14:10:44.779Z,78.43
2023-05-05T14:13:17.905Z,77.85
2023-05-05T14:15:50.221Z,79.38
2023-05-05T14:18:20.593Z,78.95
2023-05-05T14:20:51.491Z,78.97
2023-05-05T14:23:23.226Z,78.91
2023-05-05T14:25:53.484Z,78.56
2023-05-05T14:28:24.356Z,77.43
2023-05-05T14:30:55.321Z,77.83
2023-05-05T14:33:27.043Z,77.78
2023-05-05T14:35:58.503Z,77.38
2023-05-05T14:38:29.574Z,76.23
2023-05-05T14:41:01.323Z,77.14
2023-05-05T14:43:31.512Z,78.77
2023-05-05T14:46:07.845Z,79.86
2023-05-05T14:48:40.321Z,80.59
2023-05-05T14:51:10.530Z,81.44
2023-05-05T14:53:40.761Z,81.84
2023-05-05T14:56:11.334Z,82.24
2023-05-05T14:58:41.734Z,82.44
2023-05-05T15:01:13.321Z,82.62
2023-05-05T15:03:43.931Z,82.70
2023-05-05T15:06:15.046Z,82.67
2023-05-05T15:08:46.240Z,83.11
2023-05-05T15:11:17.737Z,82.69
2023-05-05T15:13:49.569Z,83.18
2023-05-05T15:16:20.367Z,83.28
2023-05-05T15:18:52.086Z,83.97
2023-05-05T15:21:23.563Z,83.63
2023-05-05T15:23:53.970Z,83.70
2023-05-05T15:26:25.269Z,83.91
2023-05-05T15:28:56.462Z,84.32
2023-05-05T15:31:26.846Z,84.11
2023-05-05T15:33:59.011Z,83.91
2023-05-05T15:36:30.061Z,83.45
2023-05-05T15:39:01.488Z,83.13
2023-05-05T15:41:32.628Z,83.28
2023-05-05T15:44:05.448Z,82.91
2023-05-05T15:46:35.919Z,83.01
2023-05-05T15:49:06.973Z,82.65
2023-05-05T15:51:38.301Z,82.20
2023-05-05T15:54:09.178Z,82.59
2023-05-05T15:56:39.622Z,82.50
2023-05-05T15:59:10.871Z,82.36
2023-05-05T16:01:42.061Z,82.44
2023-05-05T16:04:13.211Z,83.67
2023-05-05T16:06:43.383Z,83.48
2023-05-05T16:09:13.634Z,83.12
2023-05-05T16:11:44.865Z,82.89
2023-05-05T16:14:17.076Z,82.47
2023-05-05T16:16:47.297Z,82.42
2023-05-05T16:19:18.007Z,82.45
2023-05-05T16:21:50.690Z,81.83
2023-05-05T16:24:21.130Z,81.52
2023-05-05T16:26:54.007Z,81.91
2023-05-05T16:29:27.407Z,81.53
2023-05-05T16:34:26.366Z,82.28
2023-05-05T16:36:57.486Z,82.82
2023-05-05T16:39:27.672Z,83.40
2023-05-05T16:41:58.077Z,83.72
2023-05-05T16:44:28.886Z,84.08
2023-05-05T16:47:00.857Z,83.70
2023-05-05T16:49:31.307Z,83.94
2023-05-05T16:52:03.989Z,83.56
2023-05-05T16:54:35.452Z,83.27
2023-05-05T16:57:06.338Z,83.39
2023-05-05T16:59:38.693Z,83.13
2023-05-05T17:02:10.709Z,82.79
2023-05-05T17:04:43.938Z,83.08
2023-05-05T17:07:14.195Z,82.90
2023-05-05T17:09:47.462Z,82.85
2023-05-05T17:12:17.719Z,82.95
2023-05-05T17:14:47.836Z,83.25
2023-05-05T17:17:21.758Z,83.29
2023-05-05T17:19:55.573Z,82.91
2023-05-05T17:22:26.607Z,83.28
2023-05-05T17:24:56.792Z,83.51
2023-05-05T17:27:29.619Z,83.45
2023-05-05T17:30:00.772Z,83.43
2023-05-05T17:32:30.886Z,83.33
2023-05-05T17:35:02.067Z,83.57
2023-05-05T17:37:36.287Z,83.97
2023-05-05T17:40:09.564Z,83.97
2023-05-05T17:42:41.062Z,84.04
2023-05-05T17:45:14.089Z,84.14
2023-05-05T17:47:45.249Z,84.18
2023-05-05T17:50:16.896Z,84.41
2023-05-05T17:52:48.758Z,84.31
2023-05-05T17:55:20.230Z,83.91
2023-05-05T17:57:51.422Z,83.85
2023-05-05T18:00:24.628Z,84.13
2023-05-05T18:02:56.171Z,84.28
2023-05-05T18:05:27.155Z,84.25
2023-05-05T18:07:58.218Z,84.37
2023-05-05T18:10:29.848Z,84.31
2023-05-05T18:13:02.775Z,84.20
2023-05-05T18:15:33.240Z,84.26
2023-05-05T18:18:04.607Z,84.24
2023-05-05T18:20:34.912Z,84.37
2023-05-05T18:23:08.841Z,84.41
2023-05-05T18:25:40.040Z,84.35
2023-05-05T18:28:13.092Z,84.72
2023-05-05T18:30:44.829Z,84.88
2023-05-05T18:33:15.879Z,84.94
2023-05-05T18:35:46.799Z,85.02
2023-05-05T18:38:17.109Z,84.95
2023-05-05T18:40:49.826Z,85.35
2023-05-05T18:43:21.190Z,85.26
2023-05-05T18:45:52.742Z,85.24
2023-05-05T18:48:23.701Z,85.16
2023-05-05T18:50:54.330Z,85.05
2023-05-05T18:53:27.289Z,85.14
2023-05-05T18:56:03.688Z,84.89
2023-05-05T18:58:34.386Z,85.06
2023-05-05T19:01:04.693Z,85.02
2023-05-05T19:03:36.052Z,84.96
2023-05-05T19:06:09.471Z,84.96
2023-05-05T19:08:40.920Z,84.89
2023-05-05T19:11:12.699Z,84.91
2023-05-05T19:13:44.297Z,85.00
2023-05-05T19:16:15.915Z,85.03
2023-05-05T19:18:47.165Z,84.88
2023-05-05T19:21:20.189Z,85.01
2023-05-05T19:23:52.862Z,85.07
2023-05-05T19:26:23.344Z,85.04
2023-05-05T19:28:53.446Z,85.07
2023-05-05T19:31:29.707Z,85.08
2023-05-05T19:34:03.883Z,85.22
2023-05-05T19:36:36.229Z,85.25
2023-05-05T19:39:06.973Z,85.36
2023-05-05T19:41:37.065Z,85.34
2023-05-05T19:44:07.634Z,85.40
2023-05-05T19:46:39.475Z,85.35
2023-05-05T19:49:11.552Z,85.35
2023-05-05T19:51:44.110Z,85.36
2023-05-05T19:54:14.594Z,85.31
2023-05-05T19:56:46.399Z,85.32
2023-05-05T19:59:17.983Z,85.54
2023-05-05T20:01:49.410Z,85.58
2023-05-05T20:04:20.794Z,85.46
2023-05-05T20:06:51.308Z,85.49
2023-05-05T20:09:22.716Z,85.43
2023-05-05T20:11:54.285Z,85.44
2023-05-05T20:14:25.481Z,85.54
2023-05-05T20:16:56.095Z,85.71
2023-05-05T20:19:27.077Z,85.68
2023-05-05T20:21:58.446Z,85.71
2023-05-05T20:24:31.146Z,85.69
2023-05-05T20:27:02.332Z,85.56
2023-05-05T20:29:32.713Z,85.44
2023-05-05T20:32:28.522Z,85.58
2023-05-05T20:34:59.639Z,85.60
2023-05-05T20:37:30.070Z,85.70
2023-05-05T20:40:01.662Z,85.61
2023-05-05T20:42:33.229Z,85.60
2023-05-05T20:45:04.689Z,85.80
2023-05-05T20:47:37.871Z,85.71
2023-05-05T20:50:09.721Z,85.58
2023-05-05T20:52:41.423Z,85.63
2023-05-05T20:55:11.891Z,85.59
2023-05-05T20:57:42.908Z,85.70
2023-05-05T21:00:14.927Z,85.80
2023-05-05T21:02:46.386Z,85.75
2023-05-05T21:05:19.330Z,85.79
2023-05-05T21:07:50.357Z,85.71
2023-05-05T21:10:21.501Z,85.87
2023-05-05T21:12:54.001Z,85.77
2023-05-05T21:15:24.290Z,85.80
2023-05-05T21:17:54.524Z,85.84
2023-05-05T21:20:25.759Z,85.77
2023-05-05T21:22:56.753Z,85.79
2023-05-05T21:25:29.336Z,85.73
2023-05-05T21:28:00.151Z,85.64
2023-05-05T21:30:31.584Z,85.78
2023-05-05T21:33:04.443Z,85.83
2023-05-05T21:35:35.127Z,85.76
2023-05-05T21:38:10.728Z,85.82
2023-05-05T21:40:42.378Z,85.77
2023-05-05T21:43:13.521Z,85.79
2023-05-05T21:45:45.152Z,85.72
2023-05-05T21:48:15.112Z,85.73
2023-05-05T21:50:45.480Z,85.72
2023-05-05T21:53:18.410Z,85.68
2023-05-05T21:55:50.327Z,85.65
2023-05-05T21:58:23.932Z,85.68
2023-05-05T22:00:55.357Z,85.61
2023-05-05T22:03:28.623Z,85.56
2023-05-05T22:05:59.654Z,85.67
2023-05-05T22:08:31.119Z,85.71
2023-05-05T22:11:04.061Z,85.78
2023-05-05T22:13:36.244Z,85.85
2023-05-05T22:16:09.551Z,85.84
2023-05-05T22:18:41.035Z,85.75
2023-05-05T22:21:11.969Z,85.79
2023-05-05T22:23:45.878Z,85.91
2023-05-05T22:26:17.051Z,85.87
2023-05-05T22:28:49.010Z,85.70
2023-05-05T22:31:20.834Z,85.65
2023-05-05T22:33:52.496Z,85.69
2023-05-05T22:36:24.731Z,85.67
2023-05-05T22:38:56.495Z,85.65
2023-05-05T22:41:28.931Z,85.59
2023-05-05T22:43:59.794Z,85.57
2023-05-05T22:46:32.393Z,85.59
2023-05-05T22:49:02.911Z,85.52
2023-05-05T22:51:34.125Z,85.53
2023-05-05T22:54:04.542Z,85.54
2023-05-05T22:56:35.414Z,85.54
2023-05-05T22:59:08.304Z,85.55
2023-05-05T23:01:40.833Z,85.51
2023-05-05T23:04:11.798Z,85.53
2023-05-05T23:06:42.817Z,85.50
2023-05-05T23:09:13.921Z,85.58
2023-05-05T23:11:45.624Z,85.58
2023-05-05T23:14:17.501Z,85.49
2023-05-05T23:16:50.715Z,85.44
2023-05-05T23:19:23.384Z,85.47
2023-05-05T23:21:54.081Z,85.57
2023-05-05T23:24:25.719Z,85.56
2023-05-05T23:26:57.590Z,85.62
2023-05-05T23:29:27.912Z,85.72
2023-05-05T23:31:59.538Z,85.83
2023-05-05T23:34:30.680Z,85.92
2023-05-05T23:37:00.672Z,86.07
2023-05-05T23:39:32.003Z,86.08
2023-05-05T23:42:05.820Z,86.11
2023-05-05T23:44:37.410Z,86.14
2023-05-05T23:47:08.572Z,86.20
2023-05-05T23:49:39.312Z,86.20
2023-05-05T23:52:13.399Z,86.11
2023-05-05T23:54:44.920Z,86.14
2023-05-05T23:57:15.873Z,86.13
2023-05-05T23:59:47.539Z,86.10
